sensor_id;sensor_type;location;lat;lon;timestamp;pressure;altitude;pressure_sealevel;temperature;humidity
43153;BME280;28756;49.064;9.290;2022-11-20T00:01:20;98671.69;;;2.12;100.00
43153;BME280;28756;49.064;9.290;2022-11-20T00:03:47;98667.41;;;2.13;100.00
43153;BME280;28756;49.064;9.290;2022-11-20T00:06:16;98675.88;;;2.15;100.00
43153;BME280;28756;49.064;9.290;2022-11-20T00:08:42;98675.81;;;2.18;100.00
43153;BME280;28756;49.064;9.290;2022-11-20T00:11:21;98669.00;;;2.17;100.00
43153;BME280;28756;49.064;9.290;2022-11-20T00:13:51;98668.06;;;2.19;100.00
43153;BME280;28756;49.064;9.290;2022-11-20T00:16:20;98667.34;;;2.14;100.00
43153;BME280;28756;49.064;9.290;2022-11-20T00:18:46;98667.22;;;2.19;100.00
43153;BME280;28756;49.064;9.290;2022-11-20T00:21:18;98673.06;;;2.24;100.00
43153;BME280;28756;49.064;9.290;2022-11-20T00:23:45;98666.34;;;2.20;100.00
43153;BME280;28756;49.064;9.290;2022-11-20T00:26:14;98664.50;;;2.25;100.00
43153;BME280;28756;49.064;9.290;2022-11-20T00:28:41;98666.88;;;2.31;100.00
43153;BME280;28756;49.064;9.290;2022-11-20T00:31:15;98675.38;;;2.33;100.00
43153;BME280;28756;49.064;9.290;2022-11-20T00:33:42;98668.53;;;2.34;100.00
43153;BME280;28756;49.064;9.290;2022-11-20T00:36:20;98677.09;;;2.33;100.00
43153;BME280;28756;49.064;9.290;2022-11-20T00:38:50;98674.53;;;2.33;100.00
43153;BME280;28756;49.064;9.290;2022-11-20T00:41:16;98670.19;;;2.35;100.00
43153;BME280;28756;49.064;9.290;2022-11-20T00:43:42;98661.56;;;2.37;100.00
43153;BME280;28756;49.064;9.290;2022-11-20T00:46:17;98665.81;;;2.39;100.00
43153;BME280;28756;49.064;9.290;2022-11-20T00:48:44;98664.88;;;2.43;100.00
43153;BME280;28756;49.064;9.290;2022-11-20T00:51:16;98669.13;;;2.44;100.00
43153;BME280;28756;49.064;9.290;2022-11-20T00:53:42;98668.19;;;2.46;100.00
43153;BME280;28756;49.064;9.290;2022-11-20T00:56:12;98670.88;;;2.42;100.00
43153;BME280;28756;49.064;9.290;2022-11-20T00:58:40;98668.41;;;2.39;100.00
43153;BME280;28756;49.064;9.290;2022-11-20T01:01:13;98662.47;;;2.36;100.00
43153;BME280;28756;49.064;9.290;2022-11-20T01:03:46;98667.47;;;2.41;100.00
43153;BME280;28756;49.064;9.290;2022-11-20T01:06:24;98667.13;;;2.53;100.00
43153;BME280;28756;49.064;9.290;2022-11-20T01:08:54;98671.28;;;2.58;100.00
43153;BME280;28756;49.064;9.290;2022-11-20T01:11:24;98670.53;;;2.54;100.00
43153;BME280;28756;49.064;9.290;2022-11-20T01:14:02;98667.88;;;2.57;100.00
43153;BME280;28756;49.064;9.290;2022-11-20T01:16:36;98672.03;;;2.61;100.00
43153;BME280;28756;49.064;9.290;2022-11-20T01:19:05;98671.13;;;2.64;100.00
43153;BME280;28756;49.064;9.290;2022-11-20T01:21:37;98665.06;;;2.66;100.00
43153;BME280;28756;49.064;9.290;2022-11-20T01:24:06;98676.97;;;2.69;100.00
43153;BME280;28756;49.064;9.290;2022-11-20T01:26:35;98676.88;;;2.72;100.00
43153;BME280;28756;49.064;9.290;2022-11-20T01:29:03;98671.69;;;2.74;100.00
43153;BME280;28756;49.064;9.290;2022-11-20T01:31:35;98686.22;;;2.75;100.00
43153;BME280;28756;49.064;9.290;2022-11-20T01:34:13;98679.34;;;2.75;100.00
43153;BME280;28756;49.064;9.290;2022-11-20T01:36:41;98674.97;;;2.79;100.00
43153;BME280;28756;49.064;9.290;2022-11-20T01:39:15;98675.91;;;2.76;100.00
43153;BME280;28756;49.064;9.290;2022-11-20T01:41:43;98663.00;;;2.78;100.00
43153;BME280;28756;49.064;9.290;2022-11-20T01:45:00;98677.44;;;2.82;100.00
43153;BME280;28756;49.064;9.290;2022-11-20T01:47:40;98668.75;;;2.86;100.00
43153;BME280;28756;49.064;9.290;2022-11-20T01:50:22;98659.34;;;2.85;100.00
43153;BME280;28756;49.064;9.290;2022-11-20T01:52:52;98667.03;;;2.87;100.00
43153;BME280;28756;49.064;9.290;2022-11-20T01:55:25;98662.66;;;2.90;100.00
43153;BME280;28756;49.064;9.290;2022-11-20T01:57:52;98662.50;;;2.95;100.00
43153;BME280;28756;49.064;9.290;2022-11-20T02:00:20;98658.22;;;2.95;100.00
43153;BME280;28756;49.064;9.290;2022-11-20T02:02:55;98653.75;;;3.00;100.00
43153;BME280;28756;49.064;9.290;2022-11-20T02:05:43;98652.00;;;3.03;100.00
43153;BME280;28756;49.064;9.290;2022-11-20T02:08:11;98654.47;;;3.06;100.00
43153;BME280;28756;49.064;9.290;2022-11-20T02:10:37;98651.84;;;3.07;100.00
43153;BME280;28756;49.064;9.290;2022-11-20T02:13:03;98656.09;;;3.08;100.00
43153;BME280;28756;49.064;9.290;2022-11-20T02:15:48;98651.78;;;3.09;100.00
43153;BME280;28756;49.064;9.290;2022-11-20T02:18:17;98650.91;;;3.10;100.00
43153;BME280;28756;49.064;9.290;2022-11-20T02:20:46;98656.06;;;3.10;100.00
43153;BME280;28756;49.064;9.290;2022-11-20T02:26:11;98648.25;;;3.13;100.00
43153;BME280;28756;49.064;9.290;2022-11-20T02:28:38;98661.00;;;3.16;100.00
43153;BME280;28756;49.064;9.290;2022-11-20T02:31:04;98658.41;;;3.18;100.00
43153;BME280;28756;49.064;9.290;2022-11-20T02:33:30;98661.78;;;3.18;100.00
43153;BME280;28756;49.064;9.290;2022-11-20T02:35:56;98654.97;;;3.17;100.00
43153;BME280;28756;49.064;9.290;2022-11-20T02:38:22;98656.59;;;3.20;100.00
43153;BME280;28756;49.064;9.290;2022-11-20T02:40:47;98660.09;;;3.19;100.00
43153;BME280;28756;49.064;9.290;2022-11-20T02:43:15;98656.66;;;3.18;100.00
43153;BME280;28756;49.064;9.290;2022-11-20T02:45:40;98656.56;;;3.21;100.00
43153;BME280;28756;49.064;9.290;2022-11-20T02:48:07;98658.28;;;3.21;100.00
43153;BME280;28756;49.064;9.290;2022-11-20T02:50:33;98659.13;;;3.21;100.00
43153;BME280;28756;49.064;9.290;2022-11-20T02:52:59;98653.94;;;3.23;100.00
43153;BME280;28756;49.064;9.290;2022-11-20T02:55:24;98644.47;;;3.25;100.00
43153;BME280;28756;49.064;9.290;2022-11-20T02:57:50;98643.56;;;3.26;100.00
43153;BME280;28756;49.064;9.290;2022-11-20T03:00:16;98645.25;;;3.27;100.00
43153;BME280;28756;49.064;9.290;2022-11-20T03:02:42;98646.09;;;3.27;100.00
43153;BME280;28756;49.064;9.290;2022-11-20T03:05:08;98648.59;;;3.29;100.00
43153;BME280;28756;49.064;9.290;2022-11-20T03:07:33;98643.47;;;3.29;100.00
43153;BME280;28756;49.064;9.290;2022-11-20T03:09:59;98638.31;;;3.29;100.00
43153;BME280;28756;49.064;9.290;2022-11-20T03:12:25;98649.34;;;3.32;100.00
43153;BME280;28756;49.064;9.290;2022-11-20T03:14:51;98641.59;;;3.34;100.00
43153;BME280;28756;49.064;9.290;2022-11-20T03:17:16;98634.66;;;3.36;100.00
43153;BME280;28756;49.064;9.290;2022-11-20T03:19:42;98633.75;;;3.39;100.00
43153;BME280;28756;49.064;9.290;2022-11-20T03:22:08;98628.50;;;3.42;100.00
43153;BME280;28756;49.064;9.290;2022-11-20T03:24:34;98623.25;;;3.45;100.00
43153;BME280;28756;49.064;9.290;2022-11-20T03:27:00;98622.31;;;3.47;100.00
43153;BME280;28756;49.064;9.290;2022-11-20T03:29:25;98617.91;;;3.51;100.00
43153;BME280;28756;49.064;9.290;2022-11-20T03:31:51;98630.69;;;3.54;100.00
43153;BME280;28756;49.064;9.290;2022-11-20T03:34:17;98633.13;;;3.57;100.00
43153;BME280;28756;49.064;9.290;2022-11-20T03:36:43;98626.00;;;3.66;100.00
43153;BME280;28756;49.064;9.290;2022-11-20T03:39:09;98625.03;;;3.68;100.00
43153;BME280;28756;49.064;9.290;2022-11-20T03:41:39;98619.75;;;3.73;100.00
43153;BME280;28756;49.064;9.290;2022-11-20T03:44:08;98620.59;;;3.73;100.00
43153;BME280;28756;49.064;9.290;2022-11-20T03:46:35;98622.38;;;3.71;100.00
43153;BME280;28756;49.064;9.290;2022-11-20T03:49:01;98618.88;;;3.74;100.00
43153;BME280;28756;49.064;9.290;2022-11-20T03:51:32;98612.88;;;3.73;100.00
43153;BME280;28756;49.064;9.290;2022-11-20T03:54:05;98618.91;;;3.72;100.00
43153;BME280;28756;49.064;9.290;2022-11-20T03:56:35;98615.66;;;3.67;100.00
43153;BME280;28756;49.064;9.290;2022-11-20T03:59:01;98618.22;;;3.67;100.00
43153;BME280;28756;49.064;9.290;2022-11-20T04:01:31;98612.19;;;3.68;100.00
43153;BME280;28756;49.064;9.290;2022-11-20T04:03:57;98621.59;;;3.69;100.00
43153;BME280;28756;49.064;9.290;2022-11-20T04:06:27;98617.38;;;3.67;100.00
43153;BME280;28756;49.064;9.290;2022-11-20T04:08:58;98612.31;;;3.65;100.00
43153;BME280;28756;49.064;9.290;2022-11-20T04:11:27;98616.59;;;3.64;100.00
43153;BME280;28756;49.064;9.290;2022-11-20T04:13:57;98615.72;;;3.66;100.00
43153;BME280;28756;49.064;9.290;2022-11-20T04:16:25;98620.84;;;3.66;100.00
43153;BME280;28756;49.064;9.290;2022-11-20T04:18:56;98618.28;;;3.66;100.00
43153;BME280;28756;49.064;9.290;2022-11-20T04:21:23;98621.72;;;3.66;100.00
43153;BME280;28756;49.064;9.290;2022-11-20T04:23:50;98615.72;;;3.66;100.00
43153;BME280;28756;49.064;9.290;2022-11-20T04:26:19;98613.13;;;3.66;100.00
43153;BME280;28756;49.064;9.290;2022-11-20T04:28:45;98614.81;;;3.67;100.00
43153;BME280;28756;49.064;9.290;2022-11-20T04:31:17;98611.38;;;3.68;100.00
43153;BME280;28756;49.064;9.290;2022-11-20T04:33:43;98611.44;;;3.66;100.00
43153;BME280;28756;49.064;9.290;2022-11-20T04:36:19;98613.13;;;3.66;100.00
43153;BME280;28756;49.064;9.290;2022-11-20T04:38:46;98607.16;;;3.65;100.00
43153;BME280;28756;49.064;9.290;2022-11-20T04:41:18;98610.50;;;3.67;100.00
43153;BME280;28756;49.064;9.290;2022-11-20T04:43:54;98617.09;;;3.76;100.00
43153;BME280;28756;49.064;9.290;2022-11-20T04:46:25;98604.97;;;3.79;100.00
43153;BME280;28756;49.064;9.290;2022-11-20T04:48:52;98603.06;;;3.85;100.00
43153;BME280;28756;49.064;9.290;2022-11-20T04:51:18;98598.81;;;3.84;100.00
43153;BME280;28756;49.064;9.290;2022-11-20T04:53:44;98600.47;;;3.85;100.00
43153;BME280;28756;49.064;9.290;2022-11-20T04:56:12;98600.53;;;3.83;100.00
43153;BME280;28756;49.064;9.290;2022-11-20T04:58:39;98594.59;;;3.81;100.00
43153;BME280;28756;49.064;9.290;2022-11-20T05:01:13;98601.44;;;3.82;100.00
43153;BME280;28756;49.064;9.290;2022-11-20T05:03:44;98598.06;;;3.80;100.00
43153;BME280;28756;49.064;9.290;2022-11-20T05:06:13;98594.59;;;3.81;100.00
43153;BME280;28756;49.064;9.290;2022-11-20T05:08:40;98592.91;;;3.80;100.00
43153;BME280;28756;49.064;9.290;2022-11-20T05:11:15;98588.63;;;3.81;100.00
43153;BME280;28756;49.064;9.290;2022-11-20T05:13:42;98591.25;;;3.79;100.00
43153;BME280;28756;49.064;9.290;2022-11-20T05:16:20;98593.00;;;3.78;100.00
43153;BME280;28756;49.064;9.290;2022-11-20T05:18:47;98591.25;;;3.79;100.00
43153;BME280;28756;49.064;9.290;2022-11-20T05:21:14;98599.88;;;3.78;100.00
43153;BME280;28756;49.064;9.290;2022-11-20T05:23:40;98597.19;;;3.81;100.00
43153;BME280;28756;49.064;9.290;2022-11-20T05:26:17;98592.75;;;3.85;100.00
43153;BME280;28756;49.064;9.290;2022-11-20T05:28:43;98596.69;;;3.95;100.00
43153;BME280;28756;49.064;9.290;2022-11-20T05:31:16;98586.41;;;3.95;100.00
43153;BME280;28756;49.064;9.290;2022-11-20T05:33:43;98594.75;;;4.02;100.00
43153;BME280;28756;49.064;9.290;2022-11-20T05:36:12;98587.72;;;4.07;100.00
43153;BME280;28756;49.064;9.290;2022-11-20T05:38:38;98592.03;;;4.06;100.00
43153;BME280;28756;49.064;9.290;2022-11-20T05:41:11;98597.94;;;4.08;100.00
43153;BME280;28756;49.064;9.290;2022-11-20T05:43:39;98590.19;;;4.10;100.00
43153;BME280;28756;49.064;9.290;2022-11-20T05:46:07;98585.88;;;4.10;100.00
43153;BME280;28756;49.064;9.290;2022-11-20T05:48:34;98578.22;;;4.09;100.00
43153;BME280;28756;49.064;9.290;2022-11-20T05:51:03;98585.06;;;4.08;100.00
43153;BME280;28756;49.064;9.290;2022-11-20T05:53:29;98581.66;;;4.08;100.00
43153;BME280;28756;49.064;9.290;2022-11-20T05:56:10;98580.72;;;4.10;100.00
43153;BME280;28756;49.064;9.290;2022-11-20T05:58:37;98580.63;;;4.14;100.00
43153;BME280;28756;49.064;9.290;2022-11-20T06:01:25;98582.34;;;4.13;100.00
43153;BME280;28756;49.064;9.290;2022-11-20T06:03:52;98584.91;;;4.13;100.00
43153;BME280;28756;49.064;9.290;2022-11-20T06:06:19;98578.94;;;4.13;100.00
43153;BME280;28756;49.064;9.290;2022-11-20T06:08:46;98585.75;;;4.14;100.00
43153;BME280;28756;49.064;9.290;2022-11-20T06:11:13;98580.66;;;4.12;100.00
43153;BME280;28756;49.064;9.290;2022-11-20T06:13:39;98579.75;;;4.13;100.00
43153;BME280;28756;49.064;9.290;2022-11-20T06:16:06;98583.22;;;4.12;100.00
43153;BME280;28756;49.064;9.290;2022-11-20T06:18:32;98585.88;;;4.10;100.00
43153;BME280;28756;49.064;9.290;2022-11-20T06:21:03;98577.25;;;4.11;100.00
43153;BME280;28756;49.064;9.290;2022-11-20T06:23:31;98579.88;;;4.10;100.00
43153;BME280;28756;49.064;9.290;2022-11-20T06:26:02;98578.31;;;4.06;100.00
43153;BME280;28756;49.064;9.290;2022-11-20T06:28:28;98574.91;;;4.05;100.00
43153;BME280;28756;49.064;9.290;2022-11-20T06:30:53;98580.22;;;4.01;100.00
43153;BME280;28756;49.064;9.290;2022-11-20T06:33:19;98582.06;;;3.97;100.00
43153;BME280;28756;49.064;9.290;2022-11-20T06:35:45;98596.63;;;3.97;100.00
43153;BME280;28756;49.064;9.290;2022-11-20T06:38:11;98587.31;;;3.94;100.00
43153;BME280;28756;49.064;9.290;2022-11-20T06:40:40;98583.09;;;3.91;100.00
43153;BME280;28756;49.064;9.290;2022-11-20T06:43:07;98592.59;;;3.89;100.00
43153;BME280;28756;49.064;9.290;2022-11-20T06:45:32;98594.38;;;3.87;100.00
43153;BME280;28756;49.064;9.290;2022-11-20T06:47:58;98591.88;;;3.86;100.00
43153;BME280;28756;49.064;9.290;2022-11-20T06:50:24;98591.00;;;3.87;100.00
43153;BME280;28756;49.064;9.290;2022-11-20T06:52:50;98594.50;;;3.84;100.00
43153;BME280;28756;49.064;9.290;2022-11-20T06:55:16;98598.78;;;3.85;100.00
43153;BME280;28756;49.064;9.290;2022-11-20T06:57:44;98609.94;;;3.84;100.00
43153;BME280;28756;49.064;9.290;2022-11-20T07:00:13;98607.38;;;3.84;100.00
43153;BME280;28756;49.064;9.290;2022-11-20T07:02:39;98599.72;;;3.83;100.00
43153;BME280;28756;49.064;9.290;2022-11-20T07:05:05;98605.69;;;3.83;100.00
43153;BME280;28756;49.064;9.290;2022-11-20T07:07:30;98611.63;;;3.85;100.00
43153;BME280;28756;49.064;9.290;2022-11-20T07:09:56;98621.03;;;3.86;100.00
43153;BME280;28756;49.064;9.290;2022-11-20T07:12:24;98620.91;;;3.89;100.00
43153;BME280;28756;49.064;9.290;2022-11-20T07:14:50;98630.31;;;3.90;100.00
43153;BME280;28756;49.064;9.290;2022-11-20T07:17:19;98624.50;;;3.85;100.00
43153;BME280;28756;49.064;9.290;2022-11-20T07:19:45;98638.19;;;3.86;100.00
43153;BME280;28756;49.064;9.290;2022-11-20T07:22:10;98634.19;;;3.77;100.00
43153;BME280;28756;49.064;9.290;2022-11-20T07:24:36;98636.66;;;3.80;100.00
43153;BME280;28756;49.064;9.290;2022-11-20T07:27:14;98630.69;;;3.79;100.00
43153;BME280;28756;49.064;9.290;2022-11-20T07:29:56;98636.56;;;3.83;100.00
43153;BME280;28756;49.064;9.290;2022-11-20T07:32:51;98629.72;;;3.82;100.00
43153;BME280;28756;49.064;9.290;2022-11-20T07:35:18;98628.94;;;3.80;100.00
43153;BME280;28756;49.064;9.290;2022-11-20T07:37:44;98626.31;;;3.82;100.00
43153;BME280;28756;49.064;9.290;2022-11-20T07:40:14;98628.94;;;3.80;100.00
43153;BME280;28756;49.064;9.290;2022-11-20T07:42:52;98628.94;;;3.80;100.00
43153;BME280;28756;49.064;9.290;2022-11-20T07:45:19;98628.00;;;3.83;100.00
43153;BME280;28756;49.064;9.290;2022-11-20T07:47:56;98634.78;;;3.85;100.00
43153;BME280;28756;49.064;9.290;2022-11-20T07:50:25;98629.63;;;3.85;100.00
43153;BME280;28756;49.064;9.290;2022-11-20T07:52:51;98627.00;;;3.87;100.00
43153;BME280;28756;49.064;9.290;2022-11-20T07:55:22;98626.94;;;3.88;100.00
43153;BME280;28756;49.064;9.290;2022-11-20T07:57:57;98629.41;;;3.91;100.00
43153;BME280;28756;49.064;9.290;2022-11-20T08:00:25;98635.28;;;3.95;100.00
43153;BME280;28756;49.064;9.290;2022-11-20T08:02:52;98636.81;;;4.01;100.00
43153;BME280;28756;49.064;9.290;2022-11-20T08:05:20;98632.34;;;4.06;100.00
43153;BME280;28756;49.064;9.290;2022-11-20T08:07:46;98639.81;;;4.14;100.00
43153;BME280;28756;49.064;9.290;2022-11-20T08:10:14;98631.13;;;4.16;100.00
43153;BME280;28756;49.064;9.290;2022-11-20T08:12:48;98629.34;;;4.18;100.00
43153;BME280;28756;49.064;9.290;2022-11-20T08:15:33;98630.09;;;4.22;100.00
43153;BME280;28756;49.064;9.290;2022-11-20T08:18:07;98635.00;;;4.28;100.00
43153;BME280;28756;49.064;9.290;2022-11-20T08:20:37;98642.50;;;4.34;100.00
43153;BME280;28756;49.064;9.290;2022-11-20T08:23:05;98648.38;;;4.38;100.00
43153;BME280;28756;49.064;9.290;2022-11-20T08:26:00;98640.97;;;4.52;100.00
43153;BME280;28756;49.064;9.290;2022-11-20T08:28:26;98644.34;;;4.54;100.00
43153;BME280;28756;49.064;9.290;2022-11-20T08:30:59;98661.50;;;4.54;100.00
43153;BME280;28756;49.064;9.290;2022-11-20T08:33:25;98666.72;;;4.52;100.00
43153;BME280;28756;49.064;9.290;2022-11-20T08:36:06;98656.34;;;4.54;100.00
43153;BME280;28756;49.064;9.290;2022-11-20T08:38:32;98652.06;;;4.54;100.00
43153;BME280;28756;49.064;9.290;2022-11-20T08:41:09;98654.75;;;4.51;100.00
43153;BME280;28756;49.064;9.290;2022-11-20T08:44:00;98655.47;;;4.55;100.00
43153;BME280;28756;49.064;9.290;2022-11-20T08:46:40;98652.06;;;4.54;100.00
43153;BME280;28756;49.064;9.290;2022-11-20T08:49:16;98657.16;;;4.56;100.00
43153;BME280;28756;49.064;9.290;2022-11-20T08:51:51;98666.34;;;4.63;100.00
43153;BME280;28756;49.064;9.290;2022-11-20T08:54:29;98660.97;;;4.69;100.00
43153;BME280;28756;49.064;9.290;2022-11-20T08:57:06;98659.06;;;4.74;100.00
43153;BME280;28756;49.064;9.290;2022-11-20T08:59:34;98660.84;;;4.72;100.00
43153;BME280;28756;49.064;9.290;2022-11-20T09:02:02;98668.50;;;4.74;100.00
43153;BME280;28756;49.064;9.290;2022-11-20T09:04:28;98661.56;;;4.76;100.00
43153;BME280;28756;49.064;9.290;2022-11-20T09:07:03;98667.44;;;4.80;100.00
43153;BME280;28756;49.064;9.290;2022-11-20T09:09:32;98669.13;;;4.81;100.00
43153;BME280;28756;49.064;9.290;2022-11-20T09:12:08;98665.00;;;4.77;100.00
43153;BME280;28756;49.064;9.290;2022-11-20T09:14:44;98661.50;;;4.78;100.00
43153;BME280;28756;49.064;9.290;2022-11-20T09:17:11;98657.28;;;4.77;100.00
43153;BME280;28756;49.064;9.290;2022-11-20T09:19:42;98661.56;;;4.76;100.00
43153;BME280;28756;49.064;9.290;2022-11-20T09:25:21;98665.81;;;4.77;100.00
43153;BME280;28756;49.064;9.290;2022-11-20T09:27:47;98658.81;;;4.81;100.00
43153;BME280;28756;49.064;9.290;2022-11-20T09:30:16;98657.69;;;4.88;100.00
43153;BME280;28756;49.064;9.290;2022-11-20T09:32:42;98663.63;;;4.90;100.00
43153;BME280;28756;49.064;9.290;2022-11-20T09:35:08;98668.38;;;5.01;100.00
43153;BME280;28756;49.064;9.290;2022-11-20T09:37:34;98672.63;;;5.02;100.00
43153;BME280;28756;49.064;9.290;2022-11-20T09:40:00;98668.97;;;5.08;100.00
43153;BME280;28756;49.064;9.290;2022-11-20T09:42:55;98673.28;;;5.07;100.00
43153;BME280;28756;49.064;9.290;2022-11-20T09:48:48;98676.47;;;5.14;100.00
43153;BME280;28756;49.064;9.290;2022-11-20T09:51:58;98676.22;;;5.20;100.00
43153;BME280;28756;49.064;9.290;2022-11-20T09:54:34;98676.16;;;5.21;100.00
43153;BME280;28756;49.064;9.290;2022-11-20T09:57:10;98669.91;;;5.27;100.00
43153;BME280;28756;49.064;9.290;2022-11-20T09:59:53;98675.69;;;5.34;100.00
43153;BME280;28756;49.064;9.290;2022-11-20T10:02:37;98669.75;;;5.32;100.00
43153;BME280;28756;49.064;9.290;2022-11-20T10:05:18;98674.97;;;5.30;100.00
43153;BME280;28756;49.064;9.290;2022-11-20T10:07:56;98670.34;;;5.38;100.00
43153;BME280;28756;49.064;9.290;2022-11-20T10:13:23;98670.09;;;5.45;100.00
43153;BME280;28756;49.064;9.290;2022-11-20T10:19:32;98665.66;;;5.48;100.00
43153;BME280;28756;49.064;9.290;2022-11-20T10:25:34;98656.50;;;5.62;100.00
43153;BME280;28756;49.064;9.290;2022-11-20T10:28:47;98665.13;;;5.61;100.00
43153;BME280;28756;49.064;9.290;2022-11-20T10:31:44;98659.88;;;5.64;100.00
43153;BME280;28756;49.064;9.290;2022-11-20T10:34:22;98664.13;;;5.65;100.00
43153;BME280;28756;49.064;9.290;2022-11-20T10:42:24;98658.00;;;5.67;100.00
43153;BME280;28756;49.064;9.290;2022-11-20T10:45:01;98662.38;;;5.65;100.00
43153;BME280;28756;49.064;9.290;2022-11-20T10:47:30;98648.72;;;5.63;100.00
43153;BME280;28756;49.064;9.290;2022-11-20T10:50:03;98657.19;;;5.67;100.00
43153;BME280;28756;49.064;9.290;2022-11-20T10:55:45;98652.94;;;5.64;100.00
43153;BME280;28756;49.064;9.290;2022-11-20T11:01:17;98649.44;;;5.67;100.00
43153;BME280;28756;49.064;9.290;2022-11-20T11:03:43;98645.03;;;5.69;100.00
43153;BME280;28756;49.064;9.290;2022-11-20T11:06:40;98646.31;;;5.59;100.00
43153;BME280;28756;49.064;9.290;2022-11-20T11:09:21;98654.09;;;5.57;100.00
43153;BME280;28756;49.064;9.290;2022-11-20T11:11:52;98655.88;;;5.57;100.00
43153;BME280;28756;49.064;9.290;2022-11-20T11:14:18;98634.34;;;5.58;100.00
43153;BME280;28756;49.064;9.290;2022-11-20T11:16:56;98625.75;;;5.57;100.00
43153;BME280;28756;49.064;9.290;2022-11-20T11:19:22;98626.44;;;5.61;100.00
43153;BME280;28756;49.064;9.290;2022-11-20T11:21:56;98626.41;;;5.62;100.00
43153;BME280;28756;49.064;9.290;2022-11-20T11:24:28;98614.41;;;5.61;100.00
43153;BME280;28756;49.064;9.290;2022-11-20T11:27:11;98610.84;;;5.64;100.00
43153;BME280;28756;49.064;9.290;2022-11-20T11:29:37;98607.31;;;5.66;100.00
43153;BME280;28756;49.064;9.290;2022-11-20T11:32:18;98601.34;;;5.64;100.00
43153;BME280;28756;49.064;9.290;2022-11-20T11:34:44;98605.69;;;5.64;100.00
43153;BME280;28756;49.064;9.290;2022-11-20T11:37:18;98607.38;;;5.65;100.00
43153;BME280;28756;49.064;9.290;2022-11-20T11:39:46;98608.28;;;5.64;100.00
43153;BME280;28756;49.064;9.290;2022-11-20T11:42:19;98605.56;;;5.67;100.00
43153;BME280;28756;49.064;9.290;2022-11-20T11:44:47;98603.91;;;5.66;100.00
43153;BME280;28756;49.064;9.290;2022-11-20T11:56:10;98577.66;;;6.16;100.00
43153;BME280;28756;49.064;9.290;2022-11-20T11:58:53;98561.47;;;6.32;100.00
43153;BME280;28756;49.064;9.290;2022-11-20T12:01:35;98564.41;;;6.43;100.00
43153;BME280;28756;49.064;9.290;2022-11-20T12:04:17;98563.84;;;6.37;100.00
43153;BME280;28756;49.064;9.290;2022-11-20T12:06:57;98554.84;;;6.26;100.00
43153;BME280;28756;49.064;9.290;2022-11-20T12:09:37;98565.22;;;6.25;100.00
43153;BME280;28756;49.064;9.290;2022-11-20T12:12:20;98560.44;;;6.17;100.00
43153;BME280;28756;49.064;9.290;2022-11-20T12:14:48;98552.59;;;6.19;100.00
43153;BME280;28756;49.064;9.290;2022-11-20T12:17:16;98552.28;;;6.26;100.00
43153;BME280;28756;49.064;9.290;2022-11-20T12:19:43;98552.59;;;6.19;100.00
43153;BME280;28756;49.064;9.290;2022-11-20T12:22:47;98555.81;;;6.24;100.00
43153;BME280;28756;49.064;9.290;2022-11-20T12:28:28;98556.16;;;6.35;100.00
43153;BME280;28756;49.064;9.290;2022-11-20T12:36:56;98542.81;;;6.63;100.00
43153;BME280;28756;49.064;9.290;2022-11-20T12:39:41;98544.28;;;6.87;100.00
43153;BME280;28756;49.064;9.290;2022-11-20T12:42:43;98516.19;;;7.16;100.00
43153;BME280;28756;49.064;9.290;2022-11-20T12:58:05;98522.47;;;6.38;100.00
43153;BME280;28756;49.064;9.290;2022-11-20T13:00:38;98524.50;;;6.31;100.00
43153;BME280;28756;49.064;9.290;2022-11-20T13:05:47;98522.88;;;6.29;100.00
43153;BME280;28756;49.064;9.290;2022-11-20T13:08:28;98527.47;;;6.41;100.00
43153;BME280;28756;49.064;9.290;2022-11-20T13:19:13;98518.25;;;6.55;100.00
43153;BME280;28756;49.064;9.290;2022-11-20T13:21:44;98519.16;;;6.54;100.00
43153;BME280;28756;49.064;9.290;2022-11-20T13:27:19;98507.84;;;6.56;100.00
43153;BME280;28756;49.064;9.290;2022-11-20T13:30:10;98505.88;;;6.61;100.00
43153;BME280;28756;49.064;9.290;2022-11-20T13:35:32;98495.47;;;6.63;100.00
43153;BME280;28756;49.064;9.290;2022-11-20T13:38:13;98486.34;;;6.73;100.00
43153;BME280;28756;49.064;9.290;2022-11-20T13:41:00;98482.25;;;6.87;100.00
43153;BME280;28756;49.064;9.290;2022-11-20T13:43:49;98490.56;;;6.93;100.00
43153;BME280;28756;49.064;9.290;2022-11-20T13:46:15;98486.97;;;6.96;100.00
43153;BME280;28756;49.064;9.290;2022-11-20T13:48:44;98480.75;;;7.00;100.00
43153;BME280;28756;49.064;9.290;2022-11-20T13:56:54;98487.69;;;6.82;100.00
43153;BME280;28756;49.064;9.290;2022-11-20T14:02:23;98491.66;;;6.53;100.00
43153;BME280;28756;49.064;9.290;2022-11-20T14:04:53;98491.47;;;6.38;100.00
43153;BME280;28756;49.064;9.290;2022-11-20T14:07:23;98491.00;;;6.30;100.00
43153;BME280;28756;49.064;9.290;2022-11-20T14:09:54;98490.44;;;6.23;100.00
43153;BME280;28756;49.064;9.290;2022-11-20T14:12:30;98494.81;;;6.21;100.00
43153;BME280;28756;49.064;9.290;2022-11-20T14:14:57;98486.38;;;6.18;100.00
43153;BME280;28756;49.064;9.290;2022-11-20T14:17:35;98485.47;;;6.19;100.00
43153;BME280;28756;49.064;9.290;2022-11-20T14:20:11;98480.31;;;6.19;100.00
43153;BME280;28756;49.064;9.290;2022-11-20T14:22:37;98490.81;;;6.15;100.00
43153;BME280;28756;49.064;9.290;2022-11-20T14:27:39;98491.91;;;6.10;100.00
43153;BME280;28756;49.064;9.290;2022-11-20T14:30:20;98494.63;;;6.07;100.00
43153;BME280;28756;49.064;9.290;2022-11-20T14:32:48;98501.84;;;5.98;100.00
43153;BME280;28756;49.064;9.290;2022-11-20T14:35:24;98502.06;;;5.94;100.00
43153;BME280;28756;49.064;9.290;2022-11-20T14:37:55;98497.03;;;5.91;100.00
43153;BME280;28756;49.064;9.290;2022-11-20T14:40:34;98490.22;;;5.90;100.00
43153;BME280;28756;49.064;9.290;2022-11-20T14:43:20;98478.91;;;5.92;100.00
43153;BME280;28756;49.064;9.290;2022-11-20T14:45:59;98488.53;;;5.89;100.00
43153;BME280;28756;49.064;9.290;2022-11-20T14:48:43;98480.56;;;5.74;100.00
43153;BME280;28756;49.064;9.290;2022-11-20T14:51:34;98468.66;;;5.72;100.00
43153;BME280;28756;49.064;9.290;2022-11-20T14:54:21;98464.81;;;5.80;100.00